Details From LEMG - Malaga
To GEML - MELILLA
Flight Number -
Tags generated
Created
Modified
Stats Distance 115 nm / 214 km
Max Altitude 7,600 ft / 2,316 m
Waypoints 3
Social Downloads 0
Likes 0
Share VATSIM

Download

Looking for another format? Having issues loading an existing format? Contact us
Advertisement - Login to hide

Notes

Basic altitude profile: - Ascent Rate: 2500ft/min - Ascent Speed: 250kts - Cruise Altitude: 35000ft - Cruise Speed: 420kts - Descent Rate: 1500ft/min - Descent Speed: 250kts Options: - Use NATs: yes - Use PACOTS: yes - Use low airways: yes - Use high airways: yes

Route

LEMG BERUM GEML

ID Type Via Altitude Latitude Longitude Leg Dist Tot Dist Heading (true) Name
O LEMG APT - 0 ft / 0 m 36.67978˚ -4.49590˚ - 0 nm - Malaga
BERUM FIX - 7,600 ft / 2,316 m 35.83333˚ -3.23583˚ 79 nm 79 nm 129° / 130° -
O GEML APT - 0 ft / 0 m 35.28037˚ -2.95671˚ 35 nm 115 nm 158° / 158° MELILLA

Altitude Profile

Advertisement - Login to hide

LEMG

Details ICAO LEMG (AGP)
Name Malaga
Region Spain
Timezone Europe/Madrid (UTC+1.0)
Stats Elevation 52 ft / 16 m (AMSL)
Location 36.679780° -4.495899°
Runways 2
Magnetic Variation 0.877° W

METAR

LEMG 141500Z 30014G24KT 9999 FEW050 17/08 Q1021 NOSIG

Decode

TAF

TAF LEMG 141100Z 1412/1512 29017KT CAVOK TX20/1414Z TN10/1506Z PROB40 TEMPO 1412/1421 30018G28KT BECMG 1502/1504 29007KT

Decode

Departure Runways

ID Width Length Bearing (true) Bearing (mag) Surface Threshold Offset Overrun Length
12 148 ft / 45 m 10,057 ft / 3,065 m 117.76° 118.64° Asphalt 0 ft / 0 m 650 ft / 198 m
13 148 ft / 45 m 10,509 ft / 3,203 m 131.69° 132.57° Asphalt 0 ft / 0 m 246 ft / 75 m
30 148 ft / 45 m 10,057 ft / 3,065 m 297.78° 298.66° Asphalt 1,115 ft / 340 m 466 ft / 142 m
31 148 ft / 45 m 10,509 ft / 3,203 m 311.70° 312.58° Asphalt 0 ft / 0 m 246 ft / 75 m

GEML

Details ICAO GEML (MLN)
Name MELILLA
Region Ceuta and Melilla
Timezone Africa/Casablanca (UTC+0.0)
Stats Elevation 156 ft / 48 m (AMSL)
Location 35.280374° -2.956708°
Runways 1
Magnetic Variation 0.454° W

METAR

GEML 141500Z 26007KT 210V320 CAVOK 18/06 Q1022

Decode

TAF

TAF GEML 141400Z 1415/1515 26011KT CAVOK TX19/1514Z TN12/1507Z TEMPO 1421/1515 27015G28KT

Decode

Destination Runways

ID Width Length Bearing (true) Bearing (mag) Surface Threshold Offset Overrun Length
15 148 ft / 45 m 4,811 ft / 1,466 m 146.39° 146.84° Asphalt 755 ft / 230 m 0 ft / 0 m
33 148 ft / 45 m 4,811 ft / 1,466 m 326.40° 326.85° Asphalt 0 ft / 0 m 0 ft / 0 m

Popular Alternatives